Time;durP1;ratioP1;P1;durP2;ratioP2;P2;SDS_P1;SDS_P2;PMS_P1;PMS_P2;Temp;Humidity;BMP_temperature;BMP_pressure;BME280_temperature;BME280_humidity;BME280_pressure;Samples;Min_cycle;Max_cycle;Signal;HPM_P1;HPM_P2
2023/04/06 00:01:51;;;;;;;12.55;9.95;;;;;;;-2.13;59.66;93563.00;5009317;28;20064;-76
2023/04/06 00:04:16;;;;;;;22.23;11.57;;;;;;;-2.05;59.46;93579.03;5007422;28;20598;-75
2023/04/06 00:06:42;;;;;;;14.88;9.75;;;;;;;-2.12;59.33;93548.94;5006284;28;20037;-75
2023/04/06 00:09:07;;;;;;;14.15;10.23;;;;;;;-1.96;59.16;93553.31;5002070;28;20570;-75
2023/04/06 00:11:33;;;;;;;12.35;9.05;;;;;;;-1.76;58.42;93563.22;5003311;28;20050;-74
2023/04/06 00:13:58;;;;;;;12.68;9.02;;;;;;;-1.87;58.41;93542.22;5008843;28;20022;-75
2023/04/06 00:16:24;;;;;;;13.77;9.93;;;;;;;-1.78;58.00;93560.84;5006365;28;20472;-75
2023/04/06 00:18:49;;;;;;;13.35;9.15;;;;;;;-1.86;58.05;93549.03;5007456;28;20092;-76
2023/04/06 00:21:15;;;;;;;13.93;9.63;;;;;;;-1.62;58.31;93551.38;5005057;28;20389;-75
2023/04/06 00:23:41;;;;;;;13.13;9.48;;;;;;;-1.51;57.16;93535.59;5005914;28;20042;-76
2023/04/06 00:26:06;;;;;;;13.75;10.70;;;;;;;-1.53;57.52;93516.81;5006229;28;20034;-76
2023/04/06 00:28:32;;;;;;;11.57;9.55;;;;;;;-1.43;56.91;93518.72;5006106;28;20026;-75
2023/04/06 00:30:57;;;;;;;10.18;8.13;;;;;;;-1.12;56.06;93533.63;5008314;28;20120;-75
2023/04/06 00:33:23;;;;;;;13.18;10.32;;;;;;;-1.15;55.87;93521.06;5005888;28;20037;-75
2023/04/06 00:35:49;;;;;;;10.00;8.68;;;;;;;-1.32;56.42;93538.66;5007444;28;20034;-75
2023/04/06 00:38:14;;;;;;;11.82;10.15;;;;;;;-1.51;56.78;93532.22;5004450;28;20061;-76
2023/04/06 00:40:40;;;;;;;12.07;8.45;;;;;;;-1.53;56.90;93532.44;5008404;28;20034;-75
2023/04/06 00:43:06;;;;;;;11.65;9.13;;;;;;;-1.52;56.80;93539.25;5006014;28;20128;-74
2023/04/06 00:45:32;;;;;;;11.40;8.85;;;;;;;-1.69;57.30;93524.69;5002890;28;20477;-75
2023/04/06 00:47:58;;;;;;;10.65;8.45;;;;;;;-1.79;57.67;93535.78;5008429;28;20398;-75
2023/04/06 00:50:23;;;;;;;11.38;8.98;;;;;;;-2.06;58.39;93509.69;5004596;28;20065;-75
2023/04/06 00:52:49;;;;;;;11.82;9.75;;;;;;;-2.07;59.52;93541.19;5003514;28;20096;-74
2023/04/06 00:55:14;;;;;;;11.10;8.68;;;;;;;-1.95;59.11;93537.41;5005308;28;20068;-76
2023/04/06 00:57:40;;;;;;;12.63;10.13;;;;;;;-1.94;59.16;93536.41;5006697;28;20042;-76
2023/04/06 01:00:06;;;;;;;11.55;9.23;;;;;;;-1.82;59.15;93534.47;5005895;28;20126;-74
2023/04/06 01:02:31;;;;;;;13.65;9.63;;;;;;;-1.65;58.68;93534.38;5006010;28;20072;-75
2023/04/06 01:04:57;;;;;;;14.02;9.38;;;;;;;-1.65;58.49;93526.56;5005957;28;20466;-75
2023/04/06 01:07:22;;;;;;;13.85;10.25;;;;;;;-1.67;58.07;93504.38;5006806;28;20471;-75
2023/04/06 01:09:48;;;;;;;12.30;10.13;;;;;;;-1.36;57.53;93532.34;5004184;28;20533;-75
2023/04/06 01:12:13;;;;;;;13.65;10.02;;;;;;;-1.54;57.61;93506.59;5005618;28;20026;-76
2023/04/06 01:14:38;;;;;;;14.00;9.52;;;;;;;-1.46;57.64;93527.81;5005091;28;20037;-74
2023/04/06 01:17:04;;;;;;;11.23;9.23;;;;;;;-1.43;57.70;93521.34;5006478;28;20096;-75
2023/04/06 01:19:29;;;;;;;11.32;9.25;;;;;;;-1.24;57.59;93512.13;5012021;28;20029;-76
2023/04/06 01:21:55;;;;;;;13.25;9.85;;;;;;;-1.26;57.28;93511.56;5006954;28;20037;-76
2023/04/06 01:24:21;;;;;;;11.93;10.13;;;;;;;-1.30;57.05;93489.63;5003354;28;20045;-75
2023/04/06 01:26:47;;;;;;;12.05;9.77;;;;;;;-1.26;57.17;93501.13;5002847;28;20447;-76
2023/04/06 01:29:12;;;;;;;11.30;9.35;;;;;;;-1.12;57.07;93512.75;5006526;28;20030;-75
2023/04/06 01:31:39;;;;;;;10.60;8.27;;;;;;;-1.34;57.45;93519.84;5005060;28;20029;-77
2023/04/06 01:34:04;;;;;;;13.13;10.13;;;;;;;-1.38;57.88;93496.09;5002759;28;20034;-75
2023/04/06 01:36:30;;;;;;;14.38;9.75;;;;;;;-1.41;58.09;93519.28;4986071;28;20104;-77
2023/04/06 01:38:56;;;;;;;13.77;9.90;;;;;;;-1.85;57.79;93446.31;4986799;28;20030;-75
2023/04/06 01:41:21;;;;;;;15.40;11.27;;;;;;;-1.45;57.99;93482.44;4982869;28;20114;-75
2023/04/06 01:43:47;;;;;;;12.40;9.93;;;;;;;-1.38;57.87;93495.28;4987977;28;20125;-74
2023/04/06 01:46:13;;;;;;;12.55;10.13;;;;;;;-1.25;57.75;93487.06;4983043;28;20023;-77
2023/04/06 01:48:38;;;;;;;13.25;10.75;;;;;;;-1.05;57.30;93502.91;4984976;28;20077;-76
2023/04/06 01:51:04;;;;;;;10.35;9.25;;;;;;;-1.10;57.39;93504.66;4984125;28;20046;-75
2023/04/06 01:53:29;;;;;;;15.18;10.73;;;;;;;-1.31;57.40;93482.06;4985302;28;20764;-75
2023/04/06 01:55:55;;;;;;;12.60;10.00;;;;;;;-1.32;57.50;93481.28;4984872;28;20432;-75
2023/04/06 01:58:20;;;;;;;12.60;9.90;;;;;;;-1.43;57.63;93472.56;5006077;28;20330;-75
2023/04/06 02:00:45;;;;;;;12.73;9.85;;;;;;;-1.41;57.94;93486.13;5003286;28;20461;-75
2023/04/06 02:03:11;;;;;;;13.85;9.73;;;;;;;-1.57;58.12;93488.84;5005752;28;20034;-76
2023/04/06 02:05:37;;;;;;;14.80;9.48;;;;;;;-1.58;58.26;93488.06;5005190;28;20040;-75
2023/04/06 02:08:06;;;;;;;13.73;10.57;;;;;;;-1.83;58.93;93467.72;5005506;28;20068;-76
2023/04/06 02:10:33;;;;;;;14.85;11.40;;;;;;;-1.58;59.19;93508.13;5004761;28;20206;-75
2023/04/06 02:12:58;;;;;;;12.35;8.88;;;;;;;-1.48;58.59;93508.25;5005473;28;20033;-75
2023/04/06 02:15:24;;;;;;;14.45;9.82;;;;;;;-1.49;58.76;93496.22;5002621;28;20738;-75
2023/04/06 02:17:51;;;;;;;19.95;12.60;;;;;;;-1.34;58.40;93490.38;5005417;28;20075;-75
2023/04/06 02:20:17;;;;;;;21.40;12.07;;;;;;;-1.22;57.83;93502.25;5003828;28;20404;-75
2023/04/06 02:22:42;;;;;;;17.85;11.70;;;;;;;-1.38;58.07;93484.88;5004196;28;20030;-75
2023/04/06 02:25:08;;;;;;;14.25;10.00;;;;;;;-1.28;57.94;93486.78;5005960;28;20029;-76
2023/04/06 02:27:33;;;;;;;15.98;11.57;;;;;;;-1.29;58.18;93493.81;4998856;28;20132;-77
2023/04/06 02:29:59;;;;;;;14.02;9.45;;;;;;;-1.44;58.52;93484.03;4985911;28;20045;-76
2023/04/06 02:32:24;;;;;;;12.75;9.50;;;;;;;-1.32;58.19;93488.31;4983789;28;20042;-75
2023/04/06 02:34:50;;;;;;;13.70;10.00;;;;;;;-1.36;58.12;93467.13;4985367;28;20457;-75
2023/04/06 02:37:15;;;;;;;12.65;10.05;;;;;;;-1.24;57.87;93477.41;4986225;28;20076;-76
2023/04/06 02:39:41;;;;;;;11.38;8.93;;;;;;;-1.30;58.00;93512.31;4986601;28;20496;-75
2023/04/06 02:42:06;;;;;;;13.75;10.05;;;;;;;-1.57;58.73;93505.28;4985707;28;20050;-75
2023/04/06 02:44:32;;;;;;;13.65;9.20;;;;;;;-1.63;59.36;93505.47;4983084;28;20042;-75
2023/04/06 02:46:57;;;;;;;12.43;10.10;;;;;;;-1.71;59.54;93491.06;4988103;28;20553;-76
2023/04/06 02:49:23;;;;;;;13.70;10.68;;;;;;;-1.53;59.28;93495.16;4984120;28;20037;-75
2023/04/06 02:51:48;;;;;;;15.23;10.07;;;;;;;-1.68;59.53;93479.34;4984777;28;20038;-75
2023/04/06 02:54:13;;;;;;;13.35;10.50;;;;;;;-1.72;59.90;93486.88;4984347;28;20041;-75
2023/04/06 02:56:39;;;;;;;16.52;12.00;;;;;;;-1.97;59.76;93442.28;4996731;28;20124;-75
2023/04/06 02:59:05;;;;;;;11.80;9.23;;;;;;;-1.82;59.55;93461.47;5006939;28;20450;-74
2023/04/06 03:01:30;;;;;;;12.93;8.80;;;;;;;-1.74;59.78;93482.91;5009185;28;20363;-75
2023/04/06 03:03:56;;;;;;;12.30;8.90;;;;;;;-1.80;59.69;93465.66;5014983;28;20037;-75
2023/04/06 03:06:21;;;;;;;12.90;9.73;;;;;;;-2.00;59.75;93438.34;5009970;28;20409;-75
2023/04/06 03:08:47;;;;;;;13.32;9.80;;;;;;;-1.69;59.91;93496.00;5005025;28;20496;-76
2023/04/06 03:11:12;;;;;;;13.75;10.05;;;;;;;-1.78;59.93;93469.59;5007741;28;20493;-76
2023/04/06 03:13:40;;;;;;;15.38;9.50;;;;;;;-1.66;59.77;93479.91;5008660;28;20144;-74
2023/04/06 03:16:06;;;;;;;14.40;9.40;;;;;;;-1.86;60.10;93476.03;5007952;28;20144;-75
2023/04/06 03:18:32;;;;;;;11.55;9.50;;;;;;;-1.84;60.62;93494.03;5007674;28;20407;-75
2023/04/06 03:20:57;;;;;;;14.82;9.77;;;;;;;-1.95;61.00;93481.94;5006072;28;20045;-75
2023/04/06 03:23:22;;;;;;;13.25;9.70;;;;;;;-1.73;60.59;93498.31;5007993;28;20466;-75
2023/04/06 03:25:48;;;;;;;11.77;8.77;;;;;;;-1.67;60.18;93493.97;5007538;28;20021;-74
2023/04/06 03:28:14;;;;;;;14.52;9.55;;;;;;;-1.76;60.32;93488.41;5009203;28;20025;-75
2023/04/06 03:30:39;;;;;;;11.35;8.68;;;;;;;-2.25;60.13;93412.03;5001351;28;20060;-76
2023/04/06 03:33:05;;;;;;;14.27;9.55;;;;;;;-1.73;60.22;93468.84;4988886;28;20057;-75
2023/04/06 03:35:30;;;;;;;12.38;9.18;;;;;;;-1.59;59.50;93468.22;4986713;28;20077;-76
2023/04/06 03:37:56;;;;;;;12.18;9.10;;;;;;;-1.79;59.15;93428.13;4986210;28;20145;-75
2023/04/06 03:40:21;;;;;;;10.13;8.13;;;;;;;-1.57;59.28;93475.81;4988565;28;20270;-75
2023/04/06 03:42:46;;;;;;;11.77;8.60;;;;;;;-1.75;59.40;93466.47;4987808;28;20587;-74
2023/04/06 03:45:15;;;;;;;12.43;9.60;;;;;;;-1.36;58.75;93495.81;4986830;28;20470;-75
2023/04/06 03:47:40;;;;;;;13.75;8.90;;;;;;;-1.24;58.48;93491.25;4985702;28;20069;-75
2023/04/06 03:50:06;;;;;;;12.55;8.93;;;;;;;-1.48;58.26;93448.25;4986525;28;20181;-74
2023/04/06 03:52:31;;;;;;;12.05;8.73;;;;;;;-1.24;58.14;93488.63;4986818;28;20022;-76
2023/04/06 03:54:57;;;;;;;10.45;8.52;;;;;;;-1.34;57.91;93480.72;4987673;28;20544;-75
2023/04/06 03:57:22;;;;;;;11.63;8.27;;;;;;;-1.37;58.08;93473.41;4999994;28;20043;-75
2023/04/06 03:59:47;;;;;;;10.70;8.02;;;;;;;-1.25;57.84;93476.63;5007543;28;21242;-75
2023/04/06 04:02:13;;;;;;;11.57;8.20;;;;;;;-1.22;58.06;93483.19;5006859;28;20038;-74
2023/04/06 04:04:38;;;;;;;11.25;8.10;;;;;;;-1.02;57.53;93485.97;5004365;28;20041;-75
2023/04/06 04:07:04;;;;;;;11.77;8.60;;;;;;;-1.04;57.21;93496.66;5006363;28;20037;-75
2023/04/06 04:09:29;;;;;;;12.85;8.63;;;;;;;-1.07;57.40;93491.16;5004094;28;20576;-76
2023/04/06 04:11:55;;;;;;;10.93;8.05;;;;;;;-1.04;56.86;93481.00;5005559;28;20045;-76
2023/04/06 04:14:20;;;;;;;10.35;7.45;;;;;;;-0.95;56.57;93476.88;5006595;28;20026;-76
2023/04/06 04:16:47;;;;;;;8.85;7.50;;;;;;;-1.34;56.86;93446.81;5008002;28;20055;-76
2023/04/06 04:19:12;;;;;;;10.23;8.43;;;;;;;-1.03;56.81;93490.41;5005948;28;20192;-77
2023/04/06 04:21:46;;;;;;;9.88;8.07;;;;;;;-1.09;57.10;93488.00;5007795;28;20035;-76
2023/04/06 04:24:11;;;;;;;11.02;7.25;;;;;;;-1.30;57.20;93473.97;5006941;28;20099;-75
2023/04/06 04:26:38;;;;;;;12.15;7.90;;;;;;;-1.23;57.43;93498.06;5006596;28;20041;-76
2023/04/06 04:29:03;;;;;;;11.98;7.72;;;;;;;-1.32;57.70;93485.69;5005445;28;20551;-75
2023/04/06 04:31:28;;;;;;;11.18;8.10;;;;;;;-1.47;58.39;93496.78;5006634;28;20021;-75
2023/04/06 04:33:54;;;;;;;11.27;7.28;;;;;;;-1.58;58.61;93467.19;5001317;28;20172;-75
2023/04/06 04:36:19;;;;;;;10.30;7.60;;;;;;;-1.48;57.98;93466.50;5008551;28;20559;-76
2023/04/06 04:38:45;;;;;;;10.70;7.78;;;;;;;-1.41;57.66;93474.94;5005427;28;20063;-75
2023/04/06 04:41:10;;;;;;;9.68;6.90;;;;;;;-1.32;57.68;93489.09;5007558;28;20033;-75
2023/04/06 04:43:36;;;;;;;11.57;8.57;;;;;;;-1.38;57.97;93474.44;5007497;28;20152;-75
2023/04/06 04:46:01;;;;;;;9.18;7.97;;;;;;;-1.55;57.84;93424.97;5000335;28;20799;-76
2023/04/06 04:48:26;;;;;;;10.20;7.68;;;;;;;-1.12;57.52;93486.66;4985177;28;20046;-77
2023/04/06 04:50:52;;;;;;;13.27;9.40;;;;;;;-1.08;57.31;93484.34;4985238;28;20504;-76
2023/04/06 04:53:17;;;;;;;16.70;11.23;;;;;;;-0.88;56.80;93476.69;4984755;28;20325;-76
2023/04/06 04:55:42;;;;;;;11.93;9.32;;;;;;;-0.83;56.86;93476.72;4984423;28;20032;-76
2023/04/06 04:58:10;;;;;;;11.20;8.38;;;;;;;-0.78;56.58;93473.34;4987160;28;20380;-73
2023/04/06 05:00:36;;;;;;;9.60;8.25;;;;;;;-0.95;56.23;93442.94;4999827;28;20272;-74
2023/04/06 05:03:03;;;;;;;11.57;8.38;;;;;;;-0.83;56.45;93473.31;4986344;28;20034;-74
2023/04/06 05:05:29;;;;;;;11.75;8.43;;;;;;;-0.83;56.68;93470.69;4984393;28;20452;-73
2023/04/06 05:07:55;;;;;;;13.38;9.77;;;;;;;-0.78;56.64;93489.03;4984856;28;20061;-75
2023/04/06 05:10:20;;;;;;;10.32;8.57;;;;;;;-0.68;57.26;93491.69;4985019;28;20441;-75
2023/04/06 05:12:46;;;;;;;11.65;7.53;;;;;;;-0.80;56.48;93481.41;4986523;28;20544;-77
2023/04/06 05:15:11;;;;;;;14.18;8.93;;;;;;;-0.95;56.83;93450.78;4985501;28;20422;-77
2023/04/06 05:17:36;;;;;;;9.55;7.88;;;;;;;-0.82;56.73;93473.03;4983317;28;20034;-75
2023/04/06 05:20:02;;;;;;;12.48;9.18;;;;;;;-0.57;56.75;93485.47;4993155;28;20441;-76
2023/04/06 05:22:28;;;;;;;12.25;9.00;;;;;;;-0.36;56.43;93481.16;4985353;28;20132;-76
2023/04/06 05:24:53;;;;;;;11.40;8.07;;;;;;;-0.15;55.78;93480.25;4985754;28;20461;-77
2023/04/06 05:27:18;;;;;;;11.82;7.90;;;;;;;-0.13;54.94;93465.88;4984951;28;20851;-76
2023/04/06 05:29:44;;;;;;;10.57;7.60;;;;;;;-0.16;54.76;93468.22;4986918;28;20041;-76
2023/04/06 05:32:09;;;;;;;11.75;8.40;;;;;;;0.04;55.02;93472.75;4985169;28;20034;-76
2023/04/06 05:34:35;;;;;;;16.35;10.38;;;;;;;0.29;54.72;93468.38;4985178;28;20400;-77
2023/04/06 05:37:00;;;;;;;12.02;8.73;;;;;;;0.01;53.88;93418.38;4985077;28;20064;-76
2023/04/06 05:39:26;;;;;;;21.95;11.65;;;;;;;0.65;53.76;93479.72;4986630;28;20084;-76
2023/04/06 05:41:51;;;;;;;22.58;9.27;;;;;;;0.61;53.52;93476.03;4992648;28;20094;-75
2023/04/06 05:44:17;;;;;;;11.95;8.13;;;;;;;0.11;53.77;93431.44;5004888;28;20050;-76
2023/04/06 05:46:42;;;;;;;12.90;9.57;;;;;;;0.45;54.23;93479.66;5002676;28;20033;-76
2023/04/06 05:49:08;;;;;;;13.27;9.32;;;;;;;0.39;53.98;93472.06;5004294;28;20456;-77
2023/04/06 05:51:33;;;;;;;11.48;8.05;;;;;;;0.38;54.05;93484.38;5004989;28;20459;-77
2023/04/06 05:53:59;;;;;;;13.18;9.27;;;;;;;0.26;54.02;93455.81;5004902;28;20416;-76
2023/04/06 05:56:25;;;;;;;12.23;8.80;;;;;;;0.38;54.10;93481.75;5001074;28;20455;-76
2023/04/06 05:58:50;;;;;;;11.38;9.05;;;;;;;0.08;54.48;93450.25;5003220;28;20033;-75
2023/04/06 06:01:16;;;;;;;14.52;9.55;;;;;;;0.32;54.63;93474.94;5003249;28;20052;-76
2023/04/06 06:03:41;;;;;;;12.15;9.57;;;;;;;0.10;54.68;93429.88;5004365;28;20037;-77
2023/04/06 06:06:07;;;;;;;15.75;10.48;;;;;;;0.39;54.71;93467.63;5002156;28;21248;-76
2023/04/06 06:08:32;;;;;;;14.15;9.68;;;;;;;0.25;54.88;93440.41;5003737;28;20512;-77
2023/04/06 06:10:58;;;;;;;13.73;9.52;;;;;;;0.33;54.37;93447.72;5005206;28;20037;-75
2023/04/06 06:13:23;;;;;;;11.27;8.95;;;;;;;0.56;54.34;93470.78;5006169;28;20028;-75
2023/04/06 06:15:50;;;;;;;11.48;8.43;;;;;;;0.54;53.76;93461.66;5003033;28;20034;-76
2023/04/06 06:18:15;;;;;;;12.63;8.68;;;;;;;0.37;54.02;93459.25;5005087;28;20029;-77
2023/04/06 06:20:41;;;;;;;10.80;8.40;;;;;;;0.18;54.74;93452.91;5005360;28;20041;-77
2023/04/06 06:23:06;;;;;;;11.80;9.23;;;;;;;0.13;54.91;93458.91;5003288;28;20087;-76
2023/04/06 06:25:32;;;;;;;12.98;7.97;;;;;;;0.35;55.03;93466.56;5007458;28;20037;-76
2023/04/06 06:27:58;;;;;;;12.98;8.63;;;;;;;0.43;54.88;93462.66;5001945;28;20531;-76
2023/04/06 06:30:24;;;;;;;12.43;9.00;;;;;;;0.39;54.94;93427.59;5006169;28;20330;-76
2023/04/06 06:32:50;;;;;;;11.85;8.60;;;;;;;0.59;54.34;93451.97;5005447;28;20073;-74
2023/04/06 06:35:15;;;;;;;10.98;8.60;;;;;;;0.75;54.13;93448.31;5003964;28;20045;-76
2023/04/06 06:37:41;;;;;;;9.93;7.93;;;;;;;0.82;53.82;93453.31;5005177;28;20395;-75
2023/04/06 06:40:07;;;;;;;10.25;8.02;;;;;;;0.68;53.20;93436.53;5005604;28;20026;-74
2023/04/06 06:42:32;;;;;;;12.43;8.45;;;;;;;0.84;53.41;93466.91;5004932;28;20606;-76
2023/04/06 06:44:57;;;;;;;9.82;8.07;;;;;;;0.90;53.52;93447.53;5002967;28;20044;-73
2023/04/06 06:47:23;;;;;;;15.63;9.57;;;;;;;0.98;53.19;93454.09;4999072;28;20568;-76
2023/04/06 06:49:48;;;;;;;11.95;8.75;;;;;;;1.29;53.28;93473.19;4982414;28;20030;-76
2023/04/06 06:52:14;;;;;;;12.52;8.63;;;;;;;1.15;52.12;93458.00;4987001;28;20076;-75
2023/04/06 06:54:39;;;;;;;12.52;7.82;;;;;;;1.12;52.56;93473.47;4983668;28;20489;-76
2023/04/06 06:57:05;;;;;;;8.60;7.63;;;;;;;0.80;52.88;93450.94;4987337;28;20045;-77
2023/04/06 06:59:31;;;;;;;12.55;8.73;;;;;;;1.00;53.32;93481.59;4983725;28;20424;-76
2023/04/06 07:01:56;;;;;;;11.75;8.77;;;;;;;0.98;53.31;93464.56;4985497;28;20036;-76
2023/04/06 07:04:21;;;;;;;10.63;8.15;;;;;;;1.19;52.89;93472.16;4982215;28;20022;-77
2023/04/06 07:06:47;;;;;;;15.60;8.88;;;;;;;1.32;52.63;93459.56;5002406;28;20030;-75
2023/04/06 07:09:12;;;;;;;20.80;9.57;;;;;;;1.19;52.98;93445.97;5003463;28;20645;-77
2023/04/06 07:11:37;;;;;;;13.35;7.95;;;;;;;1.34;52.43;93453.00;5004087;28;20076;-75
2023/04/06 07:14:03;;;;;;;12.02;8.02;;;;;;;1.17;52.99;93423.72;5002732;28;20746;-75
2023/04/06 07:16:28;;;;;;;9.70;7.63;;;;;;;1.26;51.84;93444.91;5005648;28;20028;-75
2023/04/06 07:18:54;;;;;;;10.88;8.25;;;;;;;1.06;52.94;93448.31;5002990;28;20048;-75
2023/04/06 07:21:20;;;;;;;11.63;8.63;;;;;;;1.19;53.34;93453.03;5003215;28;20034;-75
2023/04/06 07:23:47;;;;;;;11.15;8.77;;;;;;;1.30;52.53;93446.72;5004623;28;20539;-76
2023/04/06 07:26:13;;;;;;;12.60;10.07;;;;;;;1.36;53.46;93448.31;5002426;28;20117;-75
2023/04/06 07:28:38;;;;;;;13.93;9.52;;;;;;;1.74;52.23;93457.41;5005502;28;20032;-75
2023/04/06 07:31:04;;;;;;;9.60;8.13;;;;;;;1.79;51.80;93469.69;5006673;28;20614;-75
2023/04/06 07:33:30;;;;;;;11.65;8.38;;;;;;;1.43;51.53;93438.31;5002918;28;20973;-76
2023/04/06 07:35:56;;;;;;;18.02;9.02;;;;;;;1.46;51.49;93443.06;5004700;28;20128;-77
2023/04/06 07:38:22;;;;;;;12.77;9.55;;;;;;;1.29;51.97;93432.06;5003832;28;20079;-75
2023/04/06 07:40:47;;;;;;;13.07;9.57;;;;;;;1.37;52.32;93434.16;5005545;28;20022;-75
2023/04/06 07:43:12;;;;;;;13.82;9.68;;;;;;;1.46;52.02;93440.44;5005779;28;20032;-75
2023/04/06 07:45:38;;;;;;;11.10;8.63;;;;;;;1.44;51.80;93429.41;5007337;28;20141;-76
2023/04/06 07:48:03;;;;;;;13.23;10.60;;;;;;;1.74;52.06;93464.47;5006323;28;20741;-76
2023/04/06 07:50:29;;;;;;;10.25;7.93;;;;;;;1.82;51.69;93461.28;5007463;28;20577;-76
2023/04/06 07:52:54;;;;;;;11.48;7.32;;;;;;;1.77;51.21;93459.47;5006154;28;20556;-76
2023/04/06 07:55:20;;;;;;;10.13;7.63;;;;;;;1.76;51.42;93473.66;5007823;28;20026;-75
2023/04/06 07:57:45;;;;;;;10.27;7.38;;;;;;;1.68;51.18;93454.00;5012852;28;20040;-77
2023/04/06 08:00:11;;;;;;;12.20;9.10;;;;;;;1.55;52.03;93435.44;5009650;28;20656;-76
2023/04/06 08:02:37;;;;;;;12.75;6.88;;;;;;;1.72;50.78;93461.34;5011826;28;20033;-75
2023/04/06 08:05:02;;;;;;;12.73;7.75;;;;;;;1.87;51.46;93453.44;5009501;28;20045;-74
2023/04/06 08:07:27;;;;;;;11.45;7.78;;;;;;;1.86;50.53;93444.00;5005370;28;20400;-73
2023/04/06 08:09:53;;;;;;;12.82;8.05;;;;;;;1.66;50.34;93436.97;5008897;28;20062;-74
2023/04/06 08:12:18;;;;;;;18.83;9.48;;;;;;;1.88;51.09;93466.28;5004966;28;20030;-74
2023/04/06 08:14:44;;;;;;;10.35;8.38;;;;;;;1.93;50.44;93449.75;5007676;28;20928;-76
2023/04/06 08:17:09;;;;;;;11.25;8.80;;;;;;;1.89;50.51;93430.38;5005373;28;20033;-74
2023/04/06 08:19:35;;;;;;;10.40;8.18;;;;;;;1.98;50.43;93453.16;5006005;28;20032;-75
2023/04/06 08:22:00;;;;;;;13.02;8.65;;;;;;;1.94;50.59;93448.72;5006391;28;20396;-75
2023/04/06 08:24:26;;;;;;;12.82;9.18;;;;;;;1.81;50.19;93452.66;5006570;28;20538;-76
2023/04/06 08:26:51;;;;;;;13.48;10.10;;;;;;;1.68;51.17;93440.09;5008141;28;20033;-75
2023/04/06 08:29:17;;;;;;;11.02;9.43;;;;;;;1.90;50.95;93477.31;5004171;28;20588;-75
2023/04/06 08:31:43;;;;;;;13.82;9.02;;;;;;;1.89;50.67;93474.94;5007112;28;20033;-75
2023/04/06 08:34:08;;;;;;;12.40;9.50;;;;;;;1.81;50.66;93444.81;5009035;28;20092;-76
2023/04/06 08:36:34;;;;;;;12.70;8.80;;;;;;;1.69;50.42;93457.41;5006436;28;20322;-76
2023/04/06 08:39:00;;;;;;;11.32;8.50;;;;;;;1.73;50.28;93478.63;5008807;28;20041;-74
2023/04/06 08:41:26;;;;;;;12.27;8.80;;;;;;;1.80;50.72;93472.06;5006075;28;20037;-74
2023/04/06 08:43:59;;;;;;;10.90;8.80;;;;;;;2.01;51.17;93480.69;5006339;28;20037;-74
2023/04/06 08:46:31;;;;;;;11.75;9.45;;;;;;;2.27;50.64;93471.66;5006441;28;20030;-74
2023/04/06 08:48:58;;;;;;;11.35;9.00;;;;;;;2.13;48.96;93426.06;5013743;28;20041;-75
2023/04/06 08:51:26;;;;;;;14.13;10.18;;;;;;;2.19;50.44;93434.72;5006675;28;20030;-75
2023/04/06 08:53:54;;;;;;;13.35;8.77;;;;;;;2.48;48.93;93467.88;5004037;28;20037;-75
2023/04/06 08:56:21;;;;;;;13.57;10.07;;;;;;;2.13;49.48;93451.53;5005150;28;20026;-74
2023/04/06 08:58:47;;;;;;;13.15;9.73;;;;;;;2.28;49.49;93433.09;5005652;28;20513;-73
2023/04/06 09:01:15;;;;;;;12.43;9.82;;;;;;;2.51;49.32;93454.22;5006137;28;20504;-75
2023/04/06 09:03:41;;;;;;;14.27;11.75;;;;;;;2.68;49.40;93472.25;5005440;28;20068;-74
2023/04/06 09:06:08;;;;;;;15.82;10.55;;;;;;;2.68;49.42;93448.59;5004694;28;20029;-74
2023/04/06 09:08:35;;;;;;;14.55;10.93;;;;;;;2.47;48.53;93421.69;5003188;28;20049;-75
2023/04/06 09:11:02;;;;;;;13.35;9.43;;;;;;;2.45;48.47;93439.53;5004755;28;20038;-74
2023/04/06 09:13:28;;;;;;;12.43;9.75;;;;;;;2.73;48.42;93447.78;5006319;28;20559;-74
2023/04/06 09:16:03;;;;;;;12.90;9.73;;;;;;;2.84;48.17;93462.44;5004048;28;20460;-74
2023/04/06 09:18:31;;;;;;;13.60;9.15;;;;;;;2.77;47.62;93456.69;5007932;28;20460;-75
2023/04/06 09:21:04;;;;;;;11.30;8.57;;;;;;;2.44;48.28;93453.75;5005186;28;20477;-74
2023/04/06 09:23:30;;;;;;;13.45;9.43;;;;;;;2.25;48.68;93455.41;5002715;28;20113;-75
2023/04/06 09:26:11;;;;;;;10.18;8.00;;;;;;;2.38;49.39;93462.69;5007077;28;20037;-75
2023/04/06 09:28:48;;;;;;;13.68;8.88;;;;;;;2.69;47.89;93462.53;5003059;28;20063;-75
2023/04/06 09:31:15;;;;;;;12.80;9.00;;;;;;;2.31;48.25;93438.56;5005812;28;20209;-74
2023/04/06 09:33:43;;;;;;;14.27;10.27;;;;;;;2.65;49.01;93453.59;5006375;28;20381;-75
2023/04/06 09:36:09;;;;;;;13.95;9.88;;;;;;;2.71;48.92;93447.25;5005280;28;20065;-74
2023/04/06 09:38:38;;;;;;;12.05;9.70;;;;;;;2.78;47.75;93437.25;5004783;28;20039;-76
2023/04/06 09:41:04;;;;;;;12.38;9.32;;;;;;;2.69;47.74;93449.41;5003744;28;20033;-75
2023/04/06 09:43:30;;;;;;;11.82;9.05;;;;;;;2.58;48.41;93437.38;5006944;28;20022;-75
2023/04/06 09:45:56;;;;;;;17.27;10.25;;;;;;;2.70;47.92;93450.94;5005691;28;20061;-74
2023/04/06 09:48:24;;;;;;;12.77;9.48;;;;;;;2.83;47.74;93452.97;5005753;28;20420;-75
2023/04/06 09:50:52;;;;;;;12.75;9.73;;;;;;;2.74;47.81;93436.22;5003651;28;20049;-74
2023/04/06 09:53:19;;;;;;;11.27;8.43;;;;;;;2.86;47.76;93455.03;5005959;28;20091;-74
2023/04/06 09:55:49;;;;;;;10.27;8.82;;;;;;;2.77;46.55;93448.81;5003776;28;20464;-74
2023/04/06 09:58:25;;;;;;;14.63;9.93;;;;;;;2.61;47.51;93434.19;5006080;28;20018;-74
2023/04/06 10:01:03;;;;;;;10.00;8.52;;;;;;;2.77;47.59;93435.69;5011097;28;20449;-75
2023/04/06 10:03:51;;;;;;;11.15;8.88;;;;;;;2.99;47.15;93453.66;5004630;28;20036;-74
2023/04/06 10:06:25;;;;;;;14.60;9.20;;;;;;;2.91;46.89;93455.81;5003121;28;20065;-75
2023/04/06 10:08:51;;;;;;;11.63;9.48;;;;;;;2.78;47.19;93447.75;5002845;28;20058;-76
2023/04/06 10:11:17;;;;;;;16.70;11.13;;;;;;;2.80;48.41;93443.00;5004206;28;20071;-76
2023/04/06 10:13:46;;;;;;;11.60;9.40;;;;;;;2.94;47.74;93446.56;5001598;28;20022;-75
2023/04/06 10:16:14;;;;;;;13.57;10.85;;;;;;;2.72;47.05;93399.75;5003316;28;20586;-74
2023/04/06 10:18:45;;;;;;;15.98;10.70;;;;;;;3.04;47.84;93427.34;5005990;28;20137;-75
2023/04/06 10:21:14;;;;;;;16.08;10.82;;;;;;;3.00;47.32;93397.41;5004814;28;20492;-74
2023/04/06 10:23:49;;;;;;;10.90;9.15;;;;;;;3.19;45.79;93441.13;5003936;28;20570;-75
2023/04/06 10:26:16;;;;;;;11.70;9.50;;;;;;;3.17;46.49;93440.63;5006198;28;20519;-75
2023/04/06 10:28:43;;;;;;;15.77;10.98;;;;;;;3.15;45.83;93421.72;5002477;28;20476;-75
2023/04/06 10:31:09;;;;;;;13.63;10.02;;;;;;;3.02;46.30;93429.47;5008683;28;20033;-76
2023/04/06 10:33:35;;;;;;;13.38;10.77;;;;;;;2.95;47.22;93409.53;5001223;28;20381;-75
2023/04/06 10:36:11;;;;;;;13.02;10.63;;;;;;;3.01;46.30;93423.41;5012385;28;20370;-74
2023/04/06 10:38:38;;;;;;;13.30;10.68;;;;;;;3.19;47.00;93428.00;5004519;28;20461;-75
2023/04/06 10:41:05;;;;;;;14.52;10.43;;;;;;;3.08;46.77;93421.28;5004709;28;20413;-75
2023/04/06 10:43:35;;;;;;;11.98;10.05;;;;;;;3.13;46.41;93420.44;5006650;28;20104;-76
2023/04/06 10:46:00;;;;;;;12.95;10.82;;;;;;;3.09;46.34;93406.25;5005437;28;20527;-76
2023/04/06 10:48:40;;;;;;;16.20;11.65;;;;;;;3.11;47.11;93428.59;5004850;28;20045;-76
2023/04/06 10:51:18;;;;;;;16.23;11.60;;;;;;;3.07;47.50;93422.31;5005509;28;20436;-76
2023/04/06 10:53:46;;;;;;;17.85;11.52;;;;;;;3.13;48.26;93423.84;5004145;28;20039;-77
2023/04/06 10:56:13;;;;;;;16.40;10.80;;;;;;;3.36;46.96;93417.06;5003705;28;20042;-77
2023/04/06 10:58:46;;;;;;;15.05;11.80;;;;;;;3.18;46.81;93426.44;5004697;28;20061;-76
2023/04/06 11:01:12;;;;;;;16.77;12.45;;;;;;;2.99;47.45;93395.88;5006145;28;20050;-76
2023/04/06 11:03:45;;;;;;;15.85;12.18;;;;;;;3.04;47.83;93414.97;5004572;28;20570;-76
2023/04/06 11:06:17;;;;;;;16.58;11.95;;;;;;;3.11;49.16;93404.94;5003601;28;20069;-77
2023/04/06 11:08:42;;;;;;;15.68;12.27;;;;;;;3.33;47.66;93413.13;4997168;28;20121;-77
2023/04/06 11:11:18;;;;;;;14.23;11.05;;;;;;;3.58;46.29;93408.69;4998761;28;20420;-76
2023/04/06 11:13:57;;;;;;;17.95;12.48;;;;;;;3.55;47.43;93382.97;4982692;28;20026;-76
2023/04/06 11:16:28;;;;;;;16.08;11.82;;;;;;;3.76;46.58;93384.31;4986497;28;20073;-77
2023/04/06 11:18:58;;;;;;;15.45;11.35;;;;;;;3.95;45.44;93397.50;4988368;28;20131;-76
2023/04/06 11:21:43;;;;;;;14.10;10.95;;;;;;;4.05;44.76;93392.91;4996607;28;20026;-75
2023/04/06 11:24:11;;;;;;;12.55;11.23;;;;;;;4.00;44.69;93406.13;4986758;28;20034;-76